Bergamot Ace — ZGAS5 — position and weather

sailwx.info

Track history (hours):
 
Tides and Currents Weather Stations Pressure Air Temp Water Temp Dewpoint Dewpoint Depression Visibility Wind Speed Wind Dir Waves Ship Positions

Bergamot Ace

Last reported at 2017-May-09 07:25 UTC. Time now 2017-May-25 22:01 UTC.
Position S 36°13' E 174°57'.
Warning: this ship's position is 16 days out of date.

Length 186 m; draft 6.7 m.

Type: Cargo ship. MMSI: 319740000.

Date/timePositionNaut miles runAvg speedWind from/ knotsBaromVisibWave heightAir tempDewpointWater temp
2017-May-09 07:25S 36°13' E 174°57'410.0
2017-May-09 07:00S 36°17' E 174°58'510.1
2017-May-09 06:30S 36°22' E 174°59'5 9.9
2017-May-09 06:00S 36°27' E 174°60'510.0
2017-May-09 05:30S 36°32' E 174°59'5 9.9
2017-May-09 05:00S 36°37' E 174°58'5 9.9
2017-May-09 04:30S 36°41' E 174°54'5 9.9
2017-May-09 04:00S 36°44' E 174°50'4 8.2
2017-May-09 03:30S 36°48' E 174°49'3 6.3
2017-May-09 03:00S 36°50' E 174°46'0 0.2
2017-May-09 02:27S 36°50' E 174°46'0 0.0
2017-May-09 01:57S 36°50' E 174°46'0 0.0
2017-May-09 01:27S 36°50' E 174°46'0 0.0
2017-May-09 00:57S 36°50' E 174°46'0 0.0
2017-May-09 00:27S 36°50' E 174°46'0 0.0
2017-May-08 23:57S 36°50' E 174°46'0 0.0
2017-May-08 23:21S 36°50' E 174°46'0 0.0
2017-May-08 22:57S 36°50' E 174°46'0 0.0
2017-May-08 22:27S 36°50' E 174°46'0 0.0
2017-May-08 21:57S 36°50' E 174°46'0 0.0
2017-May-08 21:27S 36°50' E 174°46'0 0.0
2017-May-08 20:57S 36°50' E 174°46'0 0.0
2017-May-08 20:21S 36°50' E 174°46'0 0.0
2017-May-08 19:57S 36°50' E 174°46'0 0.0
2017-May-08 19:27S 36°50' E 174°46'0 0.0
2017-May-08 18:51S 36°50' E 174°46'0 0.0
2017-May-08 18:27S 36°50' E 174°46'0 0.0
2017-May-08 17:57S 36°50' E 174°46'0 0.0
2017-May-08 17:27S 36°50' E 174°46'0 0.0
2017-May-08 16:57S 36°50' E 174°46'0 0.0
2017-May-08 16:27S 36°50' E 174°46'0 0.0
2017-May-08 15:57S 36°50' E 174°46'0 0.0
2017-May-08 15:27S 36°50' E 174°46'0 0.2
2017-May-08 14:43S 36°50' E 174°46'5 6.9
2017-May-08 14:00S 36°46' E 174°49'5 9.7
2017-May-08 13:30S 36°41' E 174°51'1 2.0
2017-May-08 12:59S 36°42' E 174°51'0 0.0
2017-May-08 12:29S 36°42' E 174°51'0 0.0
2017-May-08 11:59S 36°42' E 174°51'0 0.0
2017-May-08 11:29S 36°42' E 174°51'0 0.0
2017-May-08 10:59S 36°42' E 174°51'0 0.0
2017-May-08 10:23S 36°42' E 174°51'0 0.0
2017-May-08 09:59S 36°42' E 174°51'0 0.0
2017-May-08 09:29S 36°42' E 174°51'0 0.0
2017-May-08 08:59S 36°42' E 174°51'0 0.0
2017-May-08 08:29S 36°42' E 174°51'0 0.0
2017-May-08 07:59S 36°42' E 174°51'0 0.0
2017-May-08 07:23S 36°42' E 174°51'0 0.0
2017-May-08 06:59S 36°42' E 174°51'0 0.0
2017-May-08 06:29S 36°42' E 174°51'0 0.0
2017-May-08 05:53S 36°42' E 174°51'0 0.0
2017-May-08 05:29S 36°42' E 174°51'0 0.0
2017-May-08 04:59S 36°42' E 174°51'0 0.0
2017-May-08 04:23S 36°42' E 174°51'0 0.0
2017-May-08 03:59S 36°42' E 174°51'0 0.1
2017-May-08 03:23S 36°42' E 174°51'0 0.1
2017-May-08 02:59S 36°42' E 174°51'0 0.0
2017-May-08 02:29S 36°42' E 174°51'0 0.0
2017-May-08 01:59S 36°42' E 174°51'0 0.0
2017-May-08 01:29S 36°42' E 174°51'0 0.0
2017-May-08 00:59S 36°42' E 174°51'0 0.0
2017-May-08 00:29S 36°42' E 174°51'0 0.0
2017-May-07 23:59S 36°42' E 174°51'0 0.1
2017-May-07 23:29S 36°42' E 174°51'0 0.0
2017-May-07 22:59S 36°42' E 174°51'0 0.0
2017-May-07 22:29S 36°42' E 174°51'0 0.0
2017-May-07 21:59S 36°42' E 174°51'0 0.0
2017-May-07 21:29S 36°42' E 174°51'0 0.0
2017-May-07 20:59S 36°42' E 174°51'0 0.0
2017-May-07 20:29S 36°42' E 174°51'0 0.0
2017-May-07 19:59S 36°42' E 174°51'0 0.0
2017-May-07 19:29S 36°42' E 174°51'0 0.0
2017-May-07 18:59S 36°42' E 174°51'0 0.0
2017-May-07 18:29S 36°42' E 174°51'0 0.0
2017-May-07 17:59S 36°42' E 174°51'0 0.0
2017-May-07 17:29S 36°42' E 174°51'0 0.0
2017-May-07 16:53S 36°42' E 174°51'0 0.0
2017-May-07 16:29S 36°42' E 174°51'0 0.0
2017-May-07 15:59S 36°42' E 174°51'0 0.0
2017-May-07 15:23S 36°42' E 174°51'0 0.0
2017-May-07 14:53S 36°42' E 174°51'0 0.0
2017-May-07 13:59S 36°42' E 174°51'0 0.0
2017-May-07 13:29S 36°42' E 174°51'0 0.1
2017-May-07 12:59S 36°42' E 174°51'0 0.0
2017-May-07 12:23S 36°42' E 174°51'0 0.0
2017-May-07 11:59S 36°42' E 174°51'0 0.0
2017-May-07 11:29S 36°42' E 174°51'0 0.0
2017-May-07 10:53S 36°42' E 174°51'0 0.0
2017-May-07 10:23S 36°42' E 174°51'0 0.0
2017-May-07 09:59S 36°42' E 174°51'0 0.0
2017-May-07 09:29S 36°42' E 174°51'0 0.0
2017-May-07 08:53S 36°42' E 174°51'0 0.0
2017-May-07 08:29S 36°42' E 174°51'0 0.1
2017-May-07 07:59S 36°42' E 174°51'0 0.0
2017-May-07 07:29S 36°42' E 174°51'0 0.0
2017-May-07 06:59S 36°42' E 174°51'0 0.0
2017-May-07 06:23S 36°42' E 174°51'0 0.0
2017-May-07 05:59S 36°42' E 174°51'0 0.1
2017-May-07 05:29S 36°42' E 174°51'0 0.1
2017-May-07 04:59S 36°42' E 174°51'0 0.0
2017-May-07 04:29S 36°42' E 174°51'0 0.0
2017-May-07 03:59S 36°42' E 174°51'0 0.0
2017-May-07 03:29S 36°42' E 174°51'0 0.0
2017-May-07 02:59S 36°42' E 174°51'0 0.0
2017-May-07 02:29S 36°42' E 174°51'0 0.0
2017-May-07 01:59S 36°42' E 174°51'0 0.0
2017-May-07 01:23S 36°42' E 174°51'0 0.0
2017-May-07 00:59S 36°42' E 174°51'0 0.0
2017-May-07 00:29S 36°42' E 174°51'0 0.0
2017-May-06 23:53S 36°42' E 174°51'0 0.0
2017-May-06 23:29S 36°42' E 174°51'0 0.0
2017-May-06 22:59S 36°42' E 174°51'0 0.0
2017-May-06 22:29S 36°42' E 174°51'0 0.0
2017-May-06 21:59S 36°42' E 174°51'0 0.0
2017-May-06 21:29S 36°42' E 174°51'0 0.0
2017-May-06 20:59S 36°42' E 174°51'0 0.0
2017-May-06 20:23S 36°42' E 174°51'0 0.0
2017-May-06 19:53S 36°42' E 174°51'0 0.0
2017-May-06 19:23S 36°42' E 174°51'0 0.0
2017-May-06 18:59S 36°42' E 174°51'0 0.0
2017-May-06 18:29S 36°42' E 174°51'0 0.0
2017-May-06 17:59S 36°42' E 174°51'0 0.0
2017-May-06 17:29S 36°42' E 174°51'0 0.0
2017-May-06 16:59S 36°42' E 174°51'0 0.0
2017-May-06 16:29S 36°42' E 174°51'0 0.0
2017-May-06 15:59S 36°42' E 174°51'0 0.0
2017-May-06 15:29S 36°42' E 174°51'0 0.0
2017-May-06 14:59S 36°42' E 174°51'0 0.0
2017-May-06 14:29S 36°42' E 174°51'3 3.1
2017-May-06 13:30S 36°40' E 174°54'4 8.4
2017-May-06 13:00S 36°37' E 174°57'5 9.7
2017-May-06 12:30S 36°32' E 174°59'510.1
2017-May-06 12:00S 36°27' E 174°60'3 6.4
2017-May-06 11:30S 36°24' E 174°59'3 6.4
2017-May-06 11:00S 36°21' E 174°59'3 6.7
2017-May-06 10:30S 36°18' E 174°58'3 6.6
2017-May-06 10:00S 36°14' E 174°57'4 8.2
2017-May-06 09:29S 36°10' E 174°56'  
2017-May-01 20:45S 38°17' E 149°06'616.7
2017-May-01 20:22S 38°20' E 148°60'616.4
2017-May-01 20:00S 38°24' E 148°53'816.4
2017-May-01 19:30S 38°29' E 148°45'18311.3
2017-May-01 03:12S 37°59' E 144°55'8 0.6
2017-Apr-30 13:39S 37°51' E 144°54'0 1.4
2017-Apr-30 13:28S 37°51' E 144°54'4 6.4
2017-Apr-30 12:55S 37°54' E 144°56'  
Track history (hours):
 
Tides and Currents Weather Stations Pressure Air Temp Water Temp Dewpoint Dewpoint Depression Visibility Wind Speed Wind Dir Waves Ship Positions

Bergamot Ace

Last reported at 2017-May-09 07:25 UTC. Time now 2017-May-25 22:01 UTC.
Position S 36°13' E 174°57'.
Warning: this ship's position is 16 days out of date.

Length 186 m; draft 6.7 m.

Type: Cargo ship. MMSI: 319740000.

Date/timePositionNaut miles runAvg speedWind from/ knotsBaromVisibWave heightAir tempDewpointWater temp
2017-May-09 07:25S 36°13' E 174°57'410.0
2017-May-09 07:00S 36°17' E 174°58'510.1
2017-May-09 06:30S 36°22' E 174°59'5 9.9
2017-May-09 06:00S 36°27' E 174°60'510.0
2017-May-09 05:30S 36°32' E 174°59'5 9.9
2017-May-09 05:00S 36°37' E 174°58'5 9.9
2017-May-09 04:30S 36°41' E 174°54'5 9.9
2017-May-09 04:00S 36°44' E 174°50'4 8.2
2017-May-09 03:30S 36°48' E 174°49'3 6.3
2017-May-09 03:00S 36°50' E 174°46'0 0.2
2017-May-09 02:27S 36°50' E 174°46'0 0.0
2017-May-09 01:57S 36°50' E 174°46'0 0.0
2017-May-09 01:27S 36°50' E 174°46'0 0.0
2017-May-09 00:57S 36°50' E 174°46'0 0.0
2017-May-09 00:27S 36°50' E 174°46'0 0.0
2017-May-08 23:57S 36°50' E 174°46'0 0.0
2017-May-08 23:21S 36°50' E 174°46'0 0.0
2017-May-08 22:57S 36°50' E 174°46'0 0.0
2017-May-08 22:27S 36°50' E 174°46'0 0.0
2017-May-08 21:57S 36°50' E 174°46'0 0.0
2017-May-08 21:27S 36°50' E 174°46'0 0.0
2017-May-08 20:57S 36°50' E 174°46'0 0.0
2017-May-08 20:21S 36°50' E 174°46'0 0.0
2017-May-08 19:57S 36°50' E 174°46'0 0.0
2017-May-08 19:27S 36°50' E 174°46'0 0.0
2017-May-08 18:51S 36°50' E 174°46'0 0.0
2017-May-08 18:27S 36°50' E 174°46'0 0.0
2017-May-08 17:57S 36°50' E 174°46'0 0.0
2017-May-08 17:27S 36°50' E 174°46'0 0.0
2017-May-08 16:57S 36°50' E 174°46'0 0.0
2017-May-08 16:27S 36°50' E 174°46'0 0.0
2017-May-08 15:57S 36°50' E 174°46'0 0.0
2017-May-08 15:27S 36°50' E 174°46'0 0.2
2017-May-08 14:43S 36°50' E 174°46'5 6.9
2017-May-08 14:00S 36°46' E 174°49'5 9.7
2017-May-08 13:30S 36°41' E 174°51'1 2.0
2017-May-08 12:59S 36°42' E 174°51'0 0.0
2017-May-08 12:29S 36°42' E 174°51'0 0.0
2017-May-08 11:59S 36°42' E 174°51'0 0.0
2017-May-08 11:29S 36°42' E 174°51'0 0.0
2017-May-08 10:59S 36°42' E 174°51'0 0.0
2017-May-08 10:23S 36°42' E 174°51'0 0.0
2017-May-08 09:59S 36°42' E 174°51'0 0.0
2017-May-08 09:29S 36°42' E 174°51'0 0.0
2017-May-08 08:59S 36°42' E 174°51'0 0.0
2017-May-08 08:29S 36°42' E 174°51'0 0.0
2017-May-08 07:59S 36°42' E 174°51'0 0.0
2017-May-08 07:23S 36°42' E 174°51'0 0.0
2017-May-08 06:59S 36°42' E 174°51'0 0.0
2017-May-08 06:29S 36°42' E 174°51'0 0.0
2017-May-08 05:53S 36°42' E 174°51'0 0.0
2017-May-08 05:29S 36°42' E 174°51'0 0.0
2017-May-08 04:59S 36°42' E 174°51'0 0.0
2017-May-08 04:23S 36°42' E 174°51'0 0.0
2017-May-08 03:59S 36°42' E 174°51'0 0.1
2017-May-08 03:23S 36°42' E 174°51'0 0.1
2017-May-08 02:59S 36°42' E 174°51'0 0.0
2017-May-08 02:29S 36°42' E 174°51'0 0.0
2017-May-08 01:59S 36°42' E 174°51'0 0.0
2017-May-08 01:29S 36°42' E 174°51'0 0.0
2017-May-08 00:59S 36°42' E 174°51'0 0.0
2017-May-08 00:29S 36°42' E 174°51'0 0.0
2017-May-07 23:59S 36°42' E 174°51'0 0.1
2017-May-07 23:29S 36°42' E 174°51'0 0.0
2017-May-07 22:59S 36°42' E 174°51'0 0.0
2017-May-07 22:29S 36°42' E 174°51'0 0.0
2017-May-07 21:59S 36°42' E 174°51'0 0.0
2017-May-07 21:29S 36°42' E 174°51'0 0.0
2017-May-07 20:59S 36°42' E 174°51'0 0.0
2017-May-07 20:29S 36°42' E 174°51'0 0.0
2017-May-07 19:59S 36°42' E 174°51'0 0.0
2017-May-07 19:29S 36°42' E 174°51'0 0.0
2017-May-07 18:59S 36°42' E 174°51'0 0.0
2017-May-07 18:29S 36°42' E 174°51'0 0.0
2017-May-07 17:59S 36°42' E 174°51'0 0.0
2017-May-07 17:29S 36°42' E 174°51'0 0.0
2017-May-07 16:53S 36°42' E 174°51'0 0.0
2017-May-07 16:29S 36°42' E 174°51'0 0.0
2017-May-07 15:59S 36°42' E 174°51'0 0.0
2017-May-07 15:23S 36°42' E 174°51'0 0.0
2017-May-07 14:53S 36°42' E 174°51'0 0.0
2017-May-07 13:59S 36°42' E 174°51'0 0.0
2017-May-07 13:29S 36°42' E 174°51'0 0.1
2017-May-07 12:59S 36°42' E 174°51'0 0.0
2017-May-07 12:23S 36°42' E 174°51'0 0.0
2017-May-07 11:59S 36°42' E 174°51'0 0.0
2017-May-07 11:29S 36°42' E 174°51'0 0.0
2017-May-07 10:53S 36°42' E 174°51'0 0.0
2017-May-07 10:23S 36°42' E 174°51'0 0.0
2017-May-07 09:59S 36°42' E 174°51'0 0.0
2017-May-07 09:29S 36°42' E 174°51'0 0.0
2017-May-07 08:53S 36°42' E 174°51'0 0.0
2017-May-07 08:29S 36°42' E 174°51'0 0.1
2017-May-07 07:59S 36°42' E 174°51'0 0.0
2017-May-07 07:29S 36°42' E 174°51'0 0.0
2017-May-07 06:59S 36°42' E 174°51'0 0.0
2017-May-07 06:23S 36°42' E 174°51'0 0.0
2017-May-07 05:59S 36°42' E 174°51'0 0.1
2017-May-07 05:29S 36°42' E 174°51'0 0.1
2017-May-07 04:59S 36°42' E 174°51'0 0.0
2017-May-07 04:29S 36°42' E 174°51'0 0.0
2017-May-07 03:59S 36°42' E 174°51'0 0.0
2017-May-07 03:29S 36°42' E 174°51'0 0.0
2017-May-07 02:59S 36°42' E 174°51'0 0.0
2017-May-07 02:29S 36°42' E 174°51'0 0.0
2017-May-07 01:59S 36°42' E 174°51'0 0.0
2017-May-07 01:23S 36°42' E 174°51'0 0.0
2017-May-07 00:59S 36°42' E 174°51'0 0.0
2017-May-07 00:29S 36°42' E 174°51'0 0.0
2017-May-06 23:53S 36°42' E 174°51'0 0.0
2017-May-06 23:29S 36°42' E 174°51'0 0.0
2017-May-06 22:59S 36°42' E 174°51'0 0.0
2017-May-06 22:29S 36°42' E 174°51'0 0.0
2017-May-06 21:59S 36°42' E 174°51'0 0.0
2017-May-06 21:29S 36°42' E 174°51'0 0.0
2017-May-06 20:59S 36°42' E 174°51'0 0.0
2017-May-06 20:23S 36°42' E 174°51'0 0.0
2017-May-06 19:53S 36°42' E 174°51'0 0.0
2017-May-06 19:23S 36°42' E 174°51'0 0.0
2017-May-06 18:59S 36°42' E 174°51'0 0.0
2017-May-06 18:29S 36°42' E 174°51'0 0.0
2017-May-06 17:59S 36°42' E 174°51'0 0.0
2017-May-06 17:29S 36°42' E 174°51'0 0.0
2017-May-06 16:59S 36°42' E 174°51'0 0.0
2017-May-06 16:29S 36°42' E 174°51'0 0.0
2017-May-06 15:59S 36°42' E 174°51'0 0.0
2017-May-06 15:29S 36°42' E 174°51'0 0.0
2017-May-06 14:59S 36°42' E 174°51'0 0.0
2017-May-06 14:29S 36°42' E 174°51'3 3.1
2017-May-06 13:30S 36°40' E 174°54'4 8.4
2017-May-06 13:00S 36°37' E 174°57'5 9.7
2017-May-06 12:30S 36°32' E 174°59'510.1
2017-May-06 12:00S 36°27' E 174°60'3 6.4
2017-May-06 11:30S 36°24' E 174°59'3 6.4
2017-May-06 11:00S 36°21' E 174°59'3 6.7
2017-May-06 10:30S 36°18' E 174°58'3 6.6
2017-May-06 10:00S 36°14' E 174°57'4 8.2
2017-May-06 09:29S 36°10' E 174°56'  
2017-May-01 20:45S 38°17' E 149°06'616.7
2017-May-01 20:22S 38°20' E 148°60'616.4
2017-May-01 20:00S 38°24' E 148°53'816.4
2017-May-01 19:30S 38°29' E 148°45'18311.3
2017-May-01 03:12S 37°59' E 144°55'8 0.6
2017-Apr-30 13:39S 37°51' E 144°54'0 1.4
2017-Apr-30 13:28S 37°51' E 144°54'4 6.4
2017-Apr-30 12:55S 37°54' E 144°56'  

Dump ship's entire track history